sensor_id;sensor_type;location;lat;lon;timestamp;pressure;altitude;pressure_sealevel;temperature;humidity
44441;BME280;30146;52.268;20.944;2023-02-17T00:01:33;100647.61;;;4.46;67.86
44441;BME280;30146;52.268;20.944;2023-02-17T00:04:05;100641.34;;;4.46;67.60
44441;BME280;30146;52.268;20.944;2023-02-17T00:06:36;100643.55;;;4.47;67.60
44441;BME280;30146;52.268;20.944;2023-02-17T00:09:07;100638.98;;;4.47;67.92
44441;BME280;30146;52.268;20.944;2023-02-17T00:11:39;100633.95;;;4.49;67.78
44441;BME280;30146;52.268;20.944;2023-02-17T00:14:12;100636.67;;;4.50;67.82
44441;BME280;30146;52.268;20.944;2023-02-17T00:16:44;100633.49;;;4.51;67.88
44441;BME280;30146;52.268;20.944;2023-02-17T00:19:15;100634.35;;;4.52;67.94
44441;BME280;30146;52.268;20.944;2023-02-17T00:21:56;100629.48;;;4.54;67.59
44441;BME280;30146;52.268;20.944;2023-02-17T00:24:32;100628.14;;;4.55;67.68
44441;BME280;30146;52.268;20.944;2023-02-17T00:27:02;100633.23;;;4.55;67.66
44441;BME280;30146;52.268;20.944;2023-02-17T00:29:34;100633.77;;;4.56;67.99
44441;BME280;30146;52.268;20.944;2023-02-17T00:32:05;100633.77;;;4.56;67.73
44441;BME280;30146;52.268;20.944;2023-02-17T00:34:39;100630.05;;;4.57;67.79
44441;BME280;30146;52.268;20.944;2023-02-17T00:37:11;100628.23;;;4.58;67.69
44441;BME280;30146;52.268;20.944;2023-02-17T00:39:42;100626.04;;;4.59;67.83
44441;BME280;30146;52.268;20.944;2023-02-17T00:42:13;100620.98;;;4.61;67.88
44441;BME280;30146;52.268;20.944;2023-02-17T00:44:44;100618.61;;;4.61;67.72
44441;BME280;30146;52.268;20.944;2023-02-17T00:47:16;100614.36;;;4.60;67.65
44441;BME280;30146;52.268;20.944;2023-02-17T00:49:48;100611.33;;;4.61;67.90
44441;BME280;30146;52.268;20.944;2023-02-17T00:52:20;100611.20;;;4.62;67.54
44441;BME280;30146;52.268;20.944;2023-02-17T00:54:52;100613.91;;;4.63;67.72
44441;BME280;30146;52.268;20.944;2023-02-17T00:57:23;100607.34;;;4.65;67.64
44441;BME280;30146;52.268;20.944;2023-02-17T00:59:55;100603.10;;;4.65;67.77
44441;BME280;30146;52.268;20.944;2023-02-17T01:02:28;100599.42;;;4.67;67.74
44441;BME280;30146;52.268;20.944;2023-02-17T01:05:03;100600.79;;;4.67;67.73
44441;BME280;30146;52.268;20.944;2023-02-17T01:07:35;100596.02;;;4.66;67.56
44441;BME280;30146;52.268;20.944;2023-02-17T01:10:08;100595.48;;;4.64;67.85
44441;BME280;30146;52.268;20.944;2023-02-17T01:12:40;100595.30;;;4.64;67.73
44441;BME280;30146;52.268;20.944;2023-02-17T01:15:12;100592.10;;;4.65;67.70
44441;BME280;30146;52.268;20.944;2023-02-17T01:17:44;100587.58;;;4.68;68.01
44441;BME280;30146;52.268;20.944;2023-02-17T01:20:15;100585.23;;;4.69;67.85
44441;BME280;30146;52.268;20.944;2023-02-17T01:22:47;100582.20;;;4.69;67.81
44441;BME280;30146;52.268;20.944;2023-02-17T01:25:18;100580.54;;;4.71;67.94
44441;BME280;30146;52.268;20.944;2023-02-17T01:27:50;100578.02;;;4.73;67.89
44441;BME280;30146;52.268;20.944;2023-02-17T01:30:22;100571.77;;;4.73;67.86
44441;BME280;30146;52.268;20.944;2023-02-17T01:32:53;100568.91;;;4.74;67.99
44441;BME280;30146;52.268;20.944;2023-02-17T01:35:25;100560.29;;;4.75;68.11
44441;BME280;30146;52.268;20.944;2023-02-17T01:37:56;100565.38;;;4.76;67.80
44441;BME280;30146;52.268;20.944;2023-02-17T01:40:27;100565.41;;;4.77;67.96
44441;BME280;30146;52.268;20.944;2023-02-17T01:42:59;100555.59;;;4.78;67.84
44441;BME280;30146;52.268;20.944;2023-02-17T01:45:40;100552.91;;;4.79;67.94
44441;BME280;30146;52.268;20.944;2023-02-17T01:48:18;100552.41;;;4.79;67.88
44441;BME280;30146;52.268;20.944;2023-02-17T01:50:54;100558.34;;;4.79;67.94
44441;BME280;30146;52.268;20.944;2023-02-17T01:53:32;100559.37;;;4.80;68.05
44441;BME280;30146;52.268;20.944;2023-02-17T01:56:07;100559.23;;;4.82;67.82
44441;BME280;30146;52.268;20.944;2023-02-17T01:58:41;100555.34;;;4.83;67.99
44441;BME280;30146;52.268;20.944;2023-02-17T02:01:14;100551.98;;;4.84;68.17
44441;BME280;30146;52.268;20.944;2023-02-17T02:03:47;100552.66;;;4.85;67.94
44441;BME280;30146;52.268;20.944;2023-02-17T02:06:21;100553.88;;;4.87;67.94
44441;BME280;30146;52.268;20.944;2023-02-17T02:08:55;100549.50;;;4.88;68.10
44441;BME280;30146;52.268;20.944;2023-02-17T02:11:30;100547.83;;;4.90;68.14
44441;BME280;30146;52.268;20.944;2023-02-17T02:14:02;100550.73;;;4.91;67.92
44441;BME280;30146;52.268;20.944;2023-02-17T02:16:43;100544.48;;;4.92;67.88
44441;BME280;30146;52.268;20.944;2023-02-17T02:19:33;100542.98;;;4.93;67.86
44441;BME280;30146;52.268;20.944;2023-02-17T02:22:29;100538.07;;;4.94;67.98
44441;BME280;30146;52.268;20.944;2023-02-17T02:25:19;100534.70;;;4.94;67.96
44441;BME280;30146;52.268;20.944;2023-02-17T02:27:59;100532.84;;;4.95;67.92
44441;BME280;30146;52.268;20.944;2023-02-17T02:30:48;100534.72;;;4.96;67.72
44441;BME280;30146;52.268;20.944;2023-02-17T02:33:26;100534.56;;;4.96;67.67
44441;BME280;30146;52.268;20.944;2023-02-17T02:36:08;100535.27;;;4.97;67.87
44441;BME280;30146;52.268;20.944;2023-02-17T02:38:44;100538.31;;;4.98;68.04
44441;BME280;30146;52.268;20.944;2023-02-17T02:41:20;100540.17;;;4.97;67.92
44441;BME280;30146;52.268;20.944;2023-02-17T02:43:53;100542.20;;;4.98;67.87
44441;BME280;30146;52.268;20.944;2023-02-17T02:46:24;100540.02;;;4.98;67.97
44441;BME280;30146;52.268;20.944;2023-02-17T02:48:55;100535.11;;;5.00;67.75
44441;BME280;30146;52.268;20.944;2023-02-17T02:51:32;100532.27;;;5.01;68.31
44441;BME280;30146;52.268;20.944;2023-02-17T02:54:31;100529.09;;;5.04;68.30
44441;BME280;30146;52.268;20.944;2023-02-17T03:00:09;100517.82;;;5.08;68.10
44441;BME280;30146;52.268;20.944;2023-02-17T03:02:46;100517.14;;;5.09;68.05
44441;BME280;30146;52.268;20.944;2023-02-17T03:05:27;100523.60;;;5.10;67.97
44441;BME280;30146;52.268;20.944;2023-02-17T03:08:05;100529.73;;;5.12;67.97
44441;BME280;30146;52.268;20.944;2023-02-17T03:10:45;100525.86;;;5.13;68.23
44441;BME280;30146;52.268;20.944;2023-02-17T03:13:17;100526.05;;;5.14;68.29
44441;BME280;30146;52.268;20.944;2023-02-17T03:15:49;100522.17;;;5.16;68.35
44441;BME280;30146;52.268;20.944;2023-02-17T03:18:20;100516.98;;;5.18;68.44
44441;BME280;30146;52.268;20.944;2023-02-17T03:20:55;100524.75;;;5.18;68.19
44441;BME280;30146;52.268;20.944;2023-02-17T03:23:27;100527.81;;;5.19;68.11
44441;BME280;30146;52.268;20.944;2023-02-17T03:25:58;100526.80;;;5.20;68.15
44441;BME280;30146;52.268;20.944;2023-02-17T03:28:30;100526.30;;;5.21;68.24
44441;BME280;30146;52.268;20.944;2023-02-17T03:31:02;100522.61;;;5.22;68.11
44441;BME280;30146;52.268;20.944;2023-02-17T03:33:34;100526.67;;;5.22;68.12
44441;BME280;30146;52.268;20.944;2023-02-17T03:36:06;100525.31;;;5.23;68.33
44441;BME280;30146;52.268;20.944;2023-02-17T03:38:37;100520.09;;;5.24;68.40
44441;BME280;30146;52.268;20.944;2023-02-17T03:41:08;100517.90;;;5.25;68.51
44441;BME280;30146;52.268;20.944;2023-02-17T03:43:39;100518.08;;;5.25;68.49
44441;BME280;30146;52.268;20.944;2023-02-17T03:46:13;100525.52;;;5.25;68.54
44441;BME280;30146;52.268;20.944;2023-02-17T03:48:45;100528.92;;;5.25;68.67
44441;BME280;30146;52.268;20.944;2023-02-17T03:51:18;100524.36;;;5.27;68.59
44441;BME280;30146;52.268;20.944;2023-02-17T03:53:51;100524.02;;;5.26;68.80
44441;BME280;30146;52.268;20.944;2023-02-17T03:56:22;100520.45;;;5.25;68.73
44441;BME280;30146;52.268;20.944;2023-02-17T03:58:53;100516.02;;;5.23;68.64
44441;BME280;30146;52.268;20.944;2023-02-17T04:01:24;100513.46;;;5.22;68.66
44441;BME280;30146;52.268;20.944;2023-02-17T04:03:56;100505.83;;;5.22;68.72
44441;BME280;30146;52.268;20.944;2023-02-17T04:06:27;100499.55;;;5.22;69.12
44441;BME280;30146;52.268;20.944;2023-02-17T04:08:58;100496.35;;;5.23;69.17
44441;BME280;30146;52.268;20.944;2023-02-17T04:11:29;100499.95;;;5.26;69.11
44441;BME280;30146;52.268;20.944;2023-02-17T04:14:01;100497.76;;;5.27;69.15
44441;BME280;30146;52.268;20.944;2023-02-17T04:16:32;100498.63;;;5.28;69.06
44441;BME280;30146;52.268;20.944;2023-02-17T04:19:03;100504.92;;;5.30;69.22
44441;BME280;30146;52.268;20.944;2023-02-17T04:21:35;100509.86;;;5.32;69.44
44441;BME280;30146;52.268;20.944;2023-02-17T04:24:06;100512.29;;;5.35;69.49
44441;BME280;30146;52.268;20.944;2023-02-17T04:26:37;100509.26;;;5.37;69.33
44441;BME280;30146;52.268;20.944;2023-02-17T04:29:08;100509.09;;;5.37;69.22
44441;BME280;30146;52.268;20.944;2023-02-17T04:31:39;100507.40;;;5.37;69.46
44441;BME280;30146;52.268;20.944;2023-02-17T04:34:11;100496.54;;;5.36;69.32
44441;BME280;30146;52.268;20.944;2023-02-17T04:36:42;100487.73;;;5.37;69.40
44441;BME280;30146;52.268;20.944;2023-02-17T04:39:13;100486.37;;;5.36;69.49
44441;BME280;30146;52.268;20.944;2023-02-17T04:41:44;100486.88;;;5.35;69.38
44441;BME280;30146;52.268;20.944;2023-02-17T04:44:15;100482.45;;;5.35;69.35
44441;BME280;30146;52.268;20.944;2023-02-17T04:46:46;100492.45;;;5.35;69.60
44441;BME280;30146;52.268;20.944;2023-02-17T04:49:17;100484.84;;;5.36;69.55
44441;BME280;30146;52.268;20.944;2023-02-17T04:51:48;100480.10;;;5.37;69.74
44441;BME280;30146;52.268;20.944;2023-02-17T04:54:19;100478.60;;;5.38;69.94
44441;BME280;30146;52.268;20.944;2023-02-17T04:56:52;100476.59;;;5.39;69.90
44441;BME280;30146;52.268;20.944;2023-02-17T04:59:23;100471.84;;;5.40;69.94
44441;BME280;30146;52.268;20.944;2023-02-17T05:01:54;100459.97;;;5.40;70.00
44441;BME280;30146;52.268;20.944;2023-02-17T05:04:26;100452.35;;;5.40;70.06
44441;BME280;30146;52.268;20.944;2023-02-17T05:06:58;100451.00;;;5.42;70.25
44441;BME280;30146;52.268;20.944;2023-02-17T05:09:29;100454.90;;;5.41;70.01
44441;BME280;30146;52.268;20.944;2023-02-17T05:12:00;100459.15;;;5.42;70.33
44441;BME280;30146;52.268;20.944;2023-02-17T05:14:34;100459.84;;;5.43;70.06
44441;BME280;30146;52.268;20.944;2023-02-17T05:17:09;100455.27;;;5.43;70.41
44441;BME280;30146;52.268;20.944;2023-02-17T05:19:40;100449.13;;;5.41;70.08
44441;BME280;30146;52.268;20.944;2023-02-17T05:22:13;100449.64;;;5.41;70.23
44441;BME280;30146;52.268;20.944;2023-02-17T05:24:44;100449.65;;;5.42;70.45
44441;BME280;30146;52.268;20.944;2023-02-17T05:27:15;100442.67;;;5.39;70.36
44441;BME280;30146;52.268;20.944;2023-02-17T05:29:54;100443.36;;;5.40;70.45
44441;BME280;30146;52.268;20.944;2023-02-17T05:32:25;100444.86;;;5.38;70.46
44441;BME280;30146;52.268;20.944;2023-02-17T05:34:55;100441.44;;;5.36;70.36
44441;BME280;30146;52.268;20.944;2023-02-17T05:37:26;100437.37;;;5.35;70.75
44441;BME280;30146;52.268;20.944;2023-02-17T05:39:57;100433.11;;;5.34;70.72
44441;BME280;30146;52.268;20.944;2023-02-17T05:42:32;100434.63;;;5.34;70.69
44441;BME280;30146;52.268;20.944;2023-02-17T05:45:07;100436.34;;;5.34;70.69
44441;BME280;30146;52.268;20.944;2023-02-17T05:47:38;100426.85;;;5.34;70.97
44441;BME280;30146;52.268;20.944;2023-02-17T05:50:11;100426.02;;;5.35;70.81
44441;BME280;30146;52.268;20.944;2023-02-17T05:52:45;100424.98;;;5.34;70.78
44441;BME280;30146;52.268;20.944;2023-02-17T05:55:22;100423.63;;;5.34;70.98
44441;BME280;30146;52.268;20.944;2023-02-17T05:58:03;100423.81;;;5.35;71.03
44441;BME280;30146;52.268;20.944;2023-02-17T06:00:45;100421.41;;;5.33;71.01
44441;BME280;30146;52.268;20.944;2023-02-17T06:03:16;100416.02;;;5.35;71.07
44441;BME280;30146;52.268;20.944;2023-02-17T06:05:51;100412.95;;;5.34;71.01
44441;BME280;30146;52.268;20.944;2023-02-17T06:08:22;100421.10;;;5.35;70.96
44441;BME280;30146;52.268;20.944;2023-02-17T06:11:16;100421.13;;;5.37;71.10
44441;BME280;30146;52.268;20.944;2023-02-17T06:13:47;100426.02;;;5.37;70.91
44441;BME280;30146;52.268;20.944;2023-02-17T06:16:20;100430.79;;;5.37;71.15
44441;BME280;30146;52.268;20.944;2023-02-17T06:19:16;100423.48;;;5.36;70.92
44441;BME280;30146;52.268;20.944;2023-02-17T06:21:47;100423.49;;;5.37;71.09
44441;BME280;30146;52.268;20.944;2023-02-17T06:27:32;100422.67;;;5.40;71.08
44441;BME280;30146;52.268;20.944;2023-02-17T06:30:04;100424.90;;;5.42;71.06
44441;BME280;30146;52.268;20.944;2023-02-17T06:32:58;100428.48;;;5.43;71.13
44441;BME280;30146;52.268;20.944;2023-02-17T06:35:34;100423.42;;;5.45;71.28
44441;BME280;30146;52.268;20.944;2023-02-17T06:38:27;100418.87;;;5.47;71.02
44441;BME280;30146;52.268;20.944;2023-02-17T06:40:58;100411.77;;;5.49;71.22
44441;BME280;30146;52.268;20.944;2023-02-17T06:43:30;100410.59;;;5.49;71.00
44441;BME280;30146;52.268;20.944;2023-02-17T06:46:04;100409.73;;;5.49;70.86
44441;BME280;30146;52.268;20.944;2023-02-17T06:48:41;100404.66;;;5.49;70.70
44441;BME280;30146;52.268;20.944;2023-02-17T06:51:16;100407.02;;;5.48;70.79
44441;BME280;30146;52.268;20.944;2023-02-17T06:53:52;100410.06;;;5.48;70.73
44441;BME280;30146;52.268;20.944;2023-02-17T06:56:24;100412.47;;;5.50;71.06
44441;BME280;30146;52.268;20.944;2023-02-17T06:58:55;100408.79;;;5.55;71.08
44441;BME280;30146;52.268;20.944;2023-02-17T07:01:26;100408.15;;;5.58;71.05
44441;BME280;30146;52.268;20.944;2023-02-17T07:03:57;100398.52;;;5.62;70.93
44441;BME280;30146;52.268;20.944;2023-02-17T07:06:32;100396.20;;;5.66;70.93
44441;BME280;30146;52.268;20.944;2023-02-17T07:12:25;100399.86;;;5.74;70.72
44441;BME280;30146;52.268;20.944;2023-02-17T07:15:19;100404.16;;;5.79;70.73
44441;BME280;30146;52.268;20.944;2023-02-17T07:18:16;100399.65;;;5.87;70.88
44441;BME280;30146;52.268;20.944;2023-02-17T07:20:47;100394.15;;;5.95;70.59
44441;BME280;30146;52.268;20.944;2023-02-17T07:23:19;100392.55;;;6.01;70.60
44441;BME280;30146;52.268;20.944;2023-02-17T07:25:52;100390.40;;;6.08;70.27
44441;BME280;30146;52.268;20.944;2023-02-17T07:28:24;100392.02;;;6.18;70.55
44441;BME280;30146;52.268;20.944;2023-02-17T07:30:55;100391.80;;;6.30;70.49
44441;BME280;30146;52.268;20.944;2023-02-17T07:33:26;100389.50;;;6.40;70.25
44441;BME280;30146;52.268;20.944;2023-02-17T07:35:59;100392.60;;;6.47;70.09
44441;BME280;30146;52.268;20.944;2023-02-17T07:38:34;100391.64;;;6.53;69.92
44441;BME280;30146;52.268;20.944;2023-02-17T07:41:21;100392.19;;;6.58;69.75
44441;BME280;30146;52.268;20.944;2023-02-17T07:43:56;100388.29;;;6.60;69.54
44441;BME280;30146;52.268;20.944;2023-02-17T07:46:28;100385.92;;;6.61;69.36
44441;BME280;30146;52.268;20.944;2023-02-17T07:48:59;100388.46;;;6.60;69.35
44441;BME280;30146;52.268;20.944;2023-02-17T07:51:32;100389.81;;;6.59;69.28
44441;BME280;30146;52.268;20.944;2023-02-17T07:54:05;100390.84;;;6.60;69.11
44441;BME280;30146;52.268;20.944;2023-02-17T07:56:36;100386.26;;;6.60;69.09
44441;BME280;30146;52.268;20.944;2023-02-17T07:59:15;100383.89;;;6.61;68.92
44441;BME280;30146;52.268;20.944;2023-02-17T08:01:49;100386.11;;;6.64;68.89
44441;BME280;30146;52.268;20.944;2023-02-17T08:04:23;100385.63;;;6.66;68.91
44441;BME280;30146;52.268;20.944;2023-02-17T08:06:54;100385.13;;;6.68;68.77
44441;BME280;30146;52.268;20.944;2023-02-17T08:09:25;100382.77;;;6.72;68.85
44441;BME280;30146;52.268;20.944;2023-02-17T08:12:18;100377.38;;;6.78;68.70
44441;BME280;30146;52.268;20.944;2023-02-17T08:15:10;100376.55;;;6.81;68.59
44441;BME280;30146;52.268;20.944;2023-02-17T08:17:42;100375.38;;;6.84;68.57
44441;BME280;30146;52.268;20.944;2023-02-17T08:20:27;100376.77;;;6.86;68.51
44441;BME280;30146;52.268;20.944;2023-02-17T08:23:07;100377.78;;;6.87;68.43
44441;BME280;30146;52.268;20.944;2023-02-17T08:25:41;100375.06;;;6.89;68.38
44441;BME280;30146;52.268;20.944;2023-02-17T08:28:12;100371.85;;;6.90;68.25
44441;BME280;30146;52.268;20.944;2023-02-17T08:30:50;100371.86;;;6.92;67.90
44441;BME280;30146;52.268;20.944;2023-02-17T08:33:21;100369.83;;;6.94;68.04
44441;BME280;30146;52.268;20.944;2023-02-17T08:35:53;100364.23;;;6.95;68.08
44441;BME280;30146;52.268;20.944;2023-02-17T08:38:24;100363.89;;;6.95;67.94
44441;BME280;30146;52.268;20.944;2023-02-17T08:40:55;100362.38;;;6.98;67.83
44441;BME280;30146;52.268;20.944;2023-02-17T08:43:34;100355.76;;;6.99;67.91
44441;BME280;30146;52.268;20.944;2023-02-17T08:46:10;100355.26;;;7.02;67.97
44441;BME280;30146;52.268;20.944;2023-02-17T08:48:43;100349.67;;;7.05;67.87
44441;BME280;30146;52.268;20.944;2023-02-17T08:51:21;100354.13;;;7.10;67.80
44441;BME280;30146;52.268;20.944;2023-02-17T08:54:06;100350.91;;;7.16;67.84
44441;BME280;30146;52.268;20.944;2023-02-17T08:56:40;100345.67;;;7.24;68.09
44441;BME280;30146;52.268;20.944;2023-02-17T08:59:13;100342.48;;;7.32;68.02
44441;BME280;30146;52.268;20.944;2023-02-17T09:22:23;100343.50;;;8.02;66.52
44441;BME280;30146;52.268;20.944;2023-02-17T09:24:59;100345.88;;;8.01;66.67
44441;BME280;30146;52.268;20.944;2023-02-17T09:27:28;100339.40;;;7.99;66.79
44441;BME280;30146;52.268;20.944;2023-02-17T09:30:03;100333.61;;;7.94;66.76
44441;BME280;30146;52.268;20.944;2023-02-17T09:32:32;100332.58;;;7.89;66.93
44441;BME280;30146;52.268;20.944;2023-02-17T09:35:00;100329.00;;;7.84;67.13
44441;BME280;30146;52.268;20.944;2023-02-17T09:41:37;100321.50;;;7.75;67.08
44441;BME280;30146;52.268;20.944;2023-02-17T09:44:12;100316.73;;;7.72;67.05
44441;BME280;30146;52.268;20.944;2023-02-17T09:47:16;100310.77;;;7.70;67.26
44441;BME280;30146;52.268;20.944;2023-02-17T09:49:49;100310.09;;;7.68;67.50
44441;BME280;30146;52.268;20.944;2023-02-17T09:52:23;100304.48;;;7.69;67.48
44441;BME280;30146;52.268;20.944;2023-02-17T09:55:00;100298.52;;;7.65;67.44
44441;BME280;30146;52.268;20.944;2023-02-17T09:57:34;100297.15;;;7.64;67.47
44441;BME280;30146;52.268;20.944;2023-02-17T10:03:19;100293.92;;;7.64;67.64
44441;BME280;30146;52.268;20.944;2023-02-17T10:05:54;100294.10;;;7.64;67.62
44441;BME280;30146;52.268;20.944;2023-02-17T10:08:40;100288.48;;;7.63;67.52
44441;BME280;30146;52.268;20.944;2023-02-17T10:11:39;100285.59;;;7.60;67.50
44441;BME280;30146;52.268;20.944;2023-02-17T10:14:15;100290.52;;;7.60;67.55
44441;BME280;30146;52.268;20.944;2023-02-17T10:16:50;100290.68;;;7.58;67.54
44441;BME280;30146;52.268;20.944;2023-02-17T10:19:23;100286.60;;;7.56;67.68
44441;BME280;30146;52.268;20.944;2023-02-17T10:22:00;100284.05;;;7.55;67.75
44441;BME280;30146;52.268;20.944;2023-02-17T10:24:30;100278.77;;;7.55;67.94
44441;BME280;30146;52.268;20.944;2023-02-17T10:27:14;100281.82;;;7.54;67.90
44441;BME280;30146;52.268;20.944;2023-02-17T10:30:00;100277.40;;;7.52;68.13
44441;BME280;30146;52.268;20.944;2023-02-17T10:32:52;100269.40;;;7.49;68.22
44441;BME280;30146;52.268;20.944;2023-02-17T10:35:32;100269.56;;;7.48;68.37
44441;BME280;30146;52.268;20.944;2023-02-17T10:38:14;100266.51;;;7.46;68.36
44441;BME280;30146;52.268;20.944;2023-02-17T10:40:45;100259.01;;;7.44;68.41
44441;BME280;30146;52.268;20.944;2023-02-17T10:43:23;100253.58;;;7.44;68.57
44441;BME280;30146;52.268;20.944;2023-02-17T10:45:54;100240.48;;;7.44;68.75
44441;BME280;30146;52.268;20.944;2023-02-17T10:48:27;100236.91;;;7.44;68.68
44441;BME280;30146;52.268;20.944;2023-02-17T10:51:00;100230.61;;;7.44;68.81
44441;BME280;30146;52.268;20.944;2023-02-17T10:53:31;100228.58;;;7.47;68.91
44441;BME280;30146;52.268;20.944;2023-02-17T10:56:05;100225.02;;;7.50;69.16
44441;BME280;30146;52.268;20.944;2023-02-17T10:58:39;100221.11;;;7.54;69.11
44441;BME280;30146;52.268;20.944;2023-02-17T11:01:13;100216.19;;;7.62;69.38
44441;BME280;30146;52.268;20.944;2023-02-17T11:03:45;100213.13;;;7.71;69.44
44441;BME280;30146;52.268;20.944;2023-02-17T11:06:18;100204.44;;;7.76;69.37
44441;BME280;30146;52.268;20.944;2023-02-17T11:08:53;100196.12;;;7.80;69.24
44441;BME280;30146;52.268;20.944;2023-02-17T11:11:26;100193.05;;;7.83;69.36
44441;BME280;30146;52.268;20.944;2023-02-17T11:14:11;100187.59;;;7.87;69.39
44441;BME280;30146;52.268;20.944;2023-02-17T11:16:43;100179.07;;;7.93;69.37
44441;BME280;30146;52.268;20.944;2023-02-17T11:19:23;100172.77;;;7.96;69.51
44441;BME280;30146;52.268;20.944;2023-02-17T11:21:54;100166.30;;;7.96;69.30
44441;BME280;30146;52.268;20.944;2023-02-17T11:24:23;100161.03;;;7.95;69.35
44441;BME280;30146;52.268;20.944;2023-02-17T11:26:57;100156.11;;;7.92;69.30
44441;BME280;30146;52.268;20.944;2023-02-17T11:29:28;100152.19;;;7.88;69.04
44441;BME280;30146;52.268;20.944;2023-02-17T11:32:00;100140.11;;;7.84;69.28
44441;BME280;30146;52.268;20.944;2023-02-17T11:34:34;100135.87;;;7.80;69.29
44441;BME280;30146;52.268;20.944;2023-02-17T11:37:19;100127.52;;;7.78;69.31
44441;BME280;30146;52.268;20.944;2023-02-17T11:39:49;100118.00;;;7.76;69.47
44441;BME280;30146;52.268;20.944;2023-02-17T11:42:21;100107.96;;;7.74;69.60
44441;BME280;30146;52.268;20.944;2023-02-17T11:45:15;100105.59;;;7.71;69.55
44441;BME280;30146;52.268;20.944;2023-02-17T11:47:54;100105.09;;;7.68;69.44
44441;BME280;30146;52.268;20.944;2023-02-17T11:50:30;100101.01;;;7.65;69.52
44441;BME280;30146;52.268;20.944;2023-02-17T11:53:22;100097.10;;;7.62;69.78
44441;BME280;30146;52.268;20.944;2023-02-17T11:56:09;100096.08;;;7.62;70.01
44441;BME280;30146;52.268;20.944;2023-02-17T11:59:10;100089.95;;;7.62;70.05
44441;BME280;30146;52.268;20.944;2023-02-17T12:01:57;100086.39;;;7.61;69.99
44441;BME280;30146;52.268;20.944;2023-02-17T12:04:30;100079.60;;;7.58;69.94
44441;BME280;30146;52.268;20.944;2023-02-17T12:10:03;100060.38;;;7.52;70.04
44441;BME280;30146;52.268;20.944;2023-02-17T12:12:43;100057.14;;;7.52;70.15
44441;BME280;30146;52.268;20.944;2023-02-17T12:15:33;100054.59;;;7.52;70.24
44441;BME280;30146;52.268;20.944;2023-02-17T12:18:35;100040.64;;;7.51;70.23
44441;BME280;30146;52.268;20.944;2023-02-17T12:21:11;100032.30;;;7.52;70.40
44441;BME280;30146;52.268;20.944;2023-02-17T12:24:02;100023.64;;;7.54;70.55
44441;BME280;30146;52.268;20.944;2023-02-17T12:26:37;100007.14;;;7.53;70.53
44441;BME280;30146;52.268;20.944;2023-02-17T12:29:26;100001.36;;;7.54;70.48
44441;BME280;30146;52.268;20.944;2023-02-17T12:32:12;99990.98;;;7.51;70.64
44441;BME280;30146;52.268;20.944;2023-02-17T12:34:51;99986.23;;;7.49;70.72
44441;BME280;30146;52.268;20.944;2023-02-17T12:37:24;99979.59;;;7.50;70.90
44441;BME280;30146;52.268;20.944;2023-02-17T12:39:58;99972.45;;;7.51;70.86
44441;BME280;30146;52.268;20.944;2023-02-17T12:42:32;99970.23;;;7.51;70.83
44441;BME280;30146;52.268;20.944;2023-02-17T12:45:05;99971.77;;;7.52;70.87
44441;BME280;30146;52.268;20.944;2023-02-17T12:47:54;99967.36;;;7.50;70.83
44441;BME280;30146;52.268;20.944;2023-02-17T12:50:34;99969.90;;;7.51;70.96
44441;BME280;30146;52.268;20.944;2023-02-17T12:59:48;99959.52;;;7.55;71.30
44441;BME280;30146;52.268;20.944;2023-02-17T13:02:20;99955.44;;;7.53;71.26
44441;BME280;30146;52.268;20.944;2023-02-17T13:04:51;99946.08;;;7.52;71.36
44441;BME280;30146;52.268;20.944;2023-02-17T13:07:28;99939.11;;;7.52;71.45
44441;BME280;30146;52.268;20.944;2023-02-17T13:10:01;99937.92;;;7.51;71.42
44441;BME280;30146;52.268;20.944;2023-02-17T13:12:34;99933.33;;;7.50;71.63
44441;BME280;30146;52.268;20.944;2023-02-17T13:15:06;99934.19;;;7.50;71.69
44441;BME280;30146;52.268;20.944;2023-02-17T13:17:55;99928.92;;;7.49;71.77
44441;BME280;30146;52.268;20.944;2023-02-17T13:20:41;99919.39;;;7.51;72.01
44441;BME280;30146;52.268;20.944;2023-02-17T13:23:24;99915.64;;;7.52;72.12
44441;BME280;30146;52.268;20.944;2023-02-17T13:26:11;99909.35;;;7.54;72.11
44441;BME280;30146;52.268;20.944;2023-02-17T13:28:41;99906.28;;;7.54;72.15
44441;BME280;30146;52.268;20.944;2023-02-17T13:31:16;99901.86;;;7.54;72.18
44441;BME280;30146;52.268;20.944;2023-02-17T13:33:51;99901.18;;;7.54;72.22
44441;BME280;30146;52.268;20.944;2023-02-17T13:36:32;99896.41;;;7.52;72.37
44441;BME280;30146;52.268;20.944;2023-02-17T13:39:05;99896.42;;;7.54;72.46
44441;BME280;30146;52.268;20.944;2023-02-17T13:41:46;99886.21;;;7.54;72.59
44441;BME280;30146;52.268;20.944;2023-02-17T13:44:26;99885.53;;;7.54;72.68
44441;BME280;30146;52.268;20.944;2023-02-17T13:46:58;99882.30;;;7.52;72.70
44441;BME280;30146;52.268;20.944;2023-02-17T13:49:30;99881.27;;;7.52;72.84
44441;BME280;30146;52.268;20.944;2023-02-17T13:52:10;99880.42;;;7.52;72.88
44441;BME280;30146;52.268;20.944;2023-02-17T13:54:52;99882.13;;;7.52;72.99
44441;BME280;30146;52.268;20.944;2023-02-17T13:57:28;99870.08;;;7.50;72.98
44441;BME280;30146;52.268;20.944;2023-02-17T14:00:19;99868.38;;;7.46;73.04
44441;BME280;30146;52.268;20.944;2023-02-17T14:03:13;99861.94;;;7.42;73.16
44441;BME280;30146;52.268;20.944;2023-02-17T14:05:47;99861.09;;;7.42;73.32
44441;BME280;30146;52.268;20.944;2023-02-17T14:08:22;99860.41;;;7.42;73.41
44441;BME280;30146;52.268;20.944;2023-02-17T14:10:54;99855.48;;;7.41;73.38
44441;BME280;30146;52.268;20.944;2023-02-17T14:13:24;99849.87;;;7.41;73.61
44441;BME280;30146;52.268;20.944;2023-02-17T14:16:04;99843.06;;;7.41;73.67
44441;BME280;30146;52.268;20.944;2023-02-17T14:18:37;99833.54;;;7.43;73.75
44441;BME280;30146;52.268;20.944;2023-02-17T14:21:25;99829.11;;;7.45;73.86